createdAt,value
2023-02-24T03:25:15.963Z,1664.00
2023-02-24T03:26:16.024Z,1659.00
2023-02-24T03:27:16.089Z,1654.00
2023-02-24T03:28:16.130Z,1652.00
2023-02-24T03:29:16.159Z,1652.00
2023-02-24T03:30:16.189Z,1649.00
2023-02-24T03:31:16.316Z,1647.00
2023-02-24T03:32:16.416Z,1645.00
2023-02-24T03:33:16.413Z,1645.00
2023-02-24T03:34:16.423Z,1644.00
2023-02-24T03:35:16.468Z,1644.00
2023-02-24T03:36:16.540Z,1640.00
2023-02-24T03:37:16.644Z,1635.00
2023-02-24T03:38:16.661Z,1627.00
2023-02-24T03:39:16.691Z,1627.00
2023-02-24T03:40:16.754Z,1623.00
2023-02-24T03:41:16.774Z,1622.00
2023-02-24T03:42:16.787Z,1619.00
2023-02-24T03:43:16.813Z,1620.00
2023-02-24T03:44:16.826Z,1618.00
2023-02-24T03:45:16.855Z,1617.00
2023-02-24T03:46:17.018Z,1613.00
2023-02-24T03:47:16.924Z,1610.00
2023-02-24T03:48:16.962Z,1610.00
2023-02-24T03:49:17.064Z,1611.00
2023-02-24T03:50:17.044Z,1612.00
2023-02-24T03:51:17.105Z,1614.00
2023-02-24T03:52:17.142Z,1614.00
2023-02-24T03:53:17.200Z,1611.00
2023-02-24T03:54:17.244Z,1607.00
2023-02-24T03:55:17.271Z,1603.00
2023-02-24T03:57:17.391Z,1598.00
2023-02-24T03:58:17.454Z,1595.00
2023-02-24T03:59:17.503Z,1593.00
2023-02-24T04:00:17.554Z,1592.00
2023-02-24T04:01:17.670Z,1591.00
2023-02-24T04:02:17.794Z,1586.00
2023-02-24T04:03:17.711Z,1581.00
2023-02-24T04:04:17.748Z,1580.00
2023-02-24T04:05:17.800Z,1580.00
2023-02-24T04:06:17.855Z,1578.00
2023-02-24T04:07:17.899Z,1575.00
2023-02-24T04:08:17.947Z,1572.00
2023-02-24T04:09:17.982Z,1570.00
2023-02-24T04:10:18.021Z,1565.00
2023-02-24T04:11:18.238Z,1562.00
2023-02-24T04:12:18.139Z,1558.00
2023-02-24T04:13:18.081Z,1556.00
2023-02-24T04:14:18.118Z,1550.00
2023-02-24T04:15:18.169Z,1553.00
2023-02-24T04:16:18.248Z,1552.00
2023-02-24T04:17:18.280Z,1552.00
2023-02-24T04:18:18.332Z,1551.00
2023-02-24T04:19:19.043Z,1550.00
2023-02-24T04:20:18.408Z,1548.00
2023-02-24T04:21:18.965Z,1544.00
2023-02-24T04:22:18.481Z,1544.00
2023-02-24T04:23:18.512Z,1545.00
2023-02-24T04:24:18.530Z,1543.00
2023-02-24T04:25:18.529Z,1540.00
2023-02-24T04:26:18.534Z,1539.00
2023-02-24T04:27:18.547Z,1536.00
2023-02-24T04:28:19.548Z,1535.00
2023-02-24T04:29:18.557Z,1537.00
2023-02-24T04:30:18.572Z,1536.00
2023-02-24T04:31:18.794Z,1531.00
2023-02-24T04:32:18.832Z,1526.00
2023-02-24T04:33:18.652Z,1523.00
2023-02-24T04:34:18.719Z,1521.00
2023-02-24T04:35:18.755Z,1520.00
2023-02-24T04:36:18.793Z,1520.00
2023-02-24T04:37:18.810Z,1517.00
2023-02-24T04:38:18.851Z,1515.00
2023-02-24T04:41:19.427Z,1509.00
2023-02-24T04:42:18.989Z,1505.00
2023-02-24T04:43:19.556Z,1507.00
2023-02-24T04:44:19.085Z,1508.00
2023-02-24T04:45:19.140Z,1505.00
2023-02-24T04:46:19.277Z,1508.00
2023-02-24T04:47:19.317Z,1511.00
2023-02-24T04:48:19.358Z,1510.00
2023-02-24T04:49:19.423Z,1508.00
2023-02-24T04:50:19.491Z,1505.00
2023-02-24T04:51:19.863Z,1504.00
2023-02-24T04:52:19.604Z,1500.00
2023-02-24T04:53:19.681Z,1496.00
2023-02-24T04:54:19.750Z,1494.00
2023-02-24T04:55:19.803Z,1491.00
2023-02-24T04:56:19.866Z,1492.00
2023-02-24T04:57:19.940Z,1491.00
2023-02-24T04:58:20.000Z,1489.00
2023-02-24T04:59:20.055Z,1488.00
2023-02-24T05:00:20.104Z,1488.00
2023-02-24T05:01:20.486Z,1488.00
2023-02-24T05:02:20.317Z,1485.00
2023-02-24T05:03:20.330Z,1477.00
2023-02-24T05:04:20.385Z,1473.00
2023-02-24T07:10:22.721Z,2662.00
2023-02-24T08:06:22.684Z,2096.00
2023-02-24T08:07:22.644Z,2125.00
2023-02-24T08:08:22.624Z,2142.00
2023-02-24T08:09:22.645Z,2160.00
2023-02-24T08:10:22.593Z,2190.00
2023-02-24T08:11:22.578Z,2228.00
2023-02-24T08:13:22.639Z,2268.00
2023-02-24T08:14:22.527Z,2308.00
2023-02-24T08:15:22.521Z,2329.00
2023-02-24T08:16:23.170Z,2333.00
2023-02-24T08:17:22.527Z,2344.00
2023-02-24T08:18:22.475Z,2352.00
2023-02-24T08:19:23.119Z,2362.00
2023-02-24T08:20:22.449Z,2375.00
2023-02-24T08:21:22.858Z,2372.00
2023-02-24T08:22:22.414Z,2345.00
2023-02-24T08:23:22.405Z,2380.00
2023-02-24T08:24:24.936Z,2455.00
2023-02-24T08:25:22.372Z,2478.00
2023-02-24T08:26:22.400Z,2499.00
2023-02-24T08:27:22.315Z,2545.00
2023-02-24T08:28:22.287Z,2591.00
2023-02-24T08:29:22.328Z,2611.00
2023-02-24T08:30:22.288Z,2638.00
2023-02-24T08:31:22.642Z,2664.00
2023-02-24T08:32:22.267Z,2697.00
2023-02-24T08:33:22.292Z,2728.00
2023-02-24T08:34:22.133Z,2780.00
2023-02-24T08:35:22.097Z,2815.00
2023-02-24T08:36:22.129Z,2836.00
2023-02-24T08:37:22.036Z,2846.00
2023-02-24T08:38:25.966Z,2860.00
2023-02-24T08:39:22.700Z,2874.00
2023-02-24T08:40:21.927Z,2889.00
2023-02-24T08:41:22.240Z,2915.00
2023-02-24T08:42:21.862Z,2945.00
2023-02-24T08:43:21.887Z,2963.00
2023-02-24T08:44:21.806Z,2979.00
2023-02-24T08:45:21.781Z,2998.00
2023-02-24T08:46:21.851Z,3026.00
2023-02-24T08:47:23.185Z,3057.00
2023-02-24T08:48:21.714Z,3089.00
2023-02-24T08:49:21.692Z,3114.00
2023-02-24T08:50:21.715Z,3131.00
2023-02-24T08:51:21.848Z,3150.00
2023-02-24T08:52:21.602Z,3175.00
2023-02-24T08:53:21.670Z,3257.00
2023-02-24T08:54:21.564Z,3302.00
2023-02-24T08:55:21.617Z,3335.00
2023-02-24T08:56:21.980Z,3365.00
2023-02-24T08:57:21.670Z,3390.00
2023-02-24T08:58:22.641Z,3407.00
2023-02-24T08:59:21.739Z,3435.00
2023-02-24T09:00:21.775Z,3457.00
2023-02-24T09:01:22.258Z,3507.00
2023-02-24T09:02:21.843Z,3530.00
2023-02-24T09:03:21.870Z,3544.00
2023-02-24T09:04:21.914Z,3561.00
2023-02-24T09:05:21.911Z,3586.00
2023-02-24T09:06:21.925Z,3613.00
2023-02-24T09:07:21.963Z,3652.00
2023-02-24T09:08:21.985Z,3676.00
2023-02-24T09:09:22.020Z,3701.00
2023-02-24T09:10:22.034Z,3724.00
2023-02-24T09:11:22.402Z,3752.00
2023-02-24T09:12:22.344Z,3778.00
2023-02-24T09:13:22.647Z,3576.00
2023-02-24T09:14:28.009Z,2585.00
2023-02-24T09:15:23.110Z,2485.00
2023-02-24T09:16:22.142Z,1817.00
2023-02-24T09:17:22.094Z,1356.00
2023-02-24T09:18:22.085Z,978.00
2023-02-24T09:19:22.112Z,752.00
2023-02-24T09:20:22.165Z,575.00
2023-02-24T09:21:22.460Z,535.00
2023-02-24T09:22:22.140Z,550.00
2023-02-24T09:23:22.178Z,578.00
2023-02-24T09:24:22.180Z,601.00
2023-02-24T09:25:22.191Z,609.00
2023-02-24T09:26:22.213Z,612.00
2023-02-24T09:27:22.205Z,611.00
2023-02-24T09:28:22.246Z,612.00
2023-02-24T09:29:22.218Z,611.00
2023-02-24T09:30:22.204Z,609.00
2023-02-24T09:31:22.825Z,611.00
2023-02-24T09:32:22.446Z,612.00
2023-02-24T09:33:22.487Z,613.00
2023-02-24T09:34:22.376Z,614.00
2023-02-24T09:35:23.078Z,615.00
2023-02-24T09:36:23.090Z,617.00
2023-02-24T09:37:22.397Z,620.00
2023-02-24T09:38:23.152Z,621.00
2023-02-24T09:39:23.120Z,626.00
2023-02-24T09:40:22.451Z,628.00
2023-02-24T09:41:22.515Z,629.00
2023-02-24T09:42:22.573Z,629.00
2023-02-24T09:43:23.170Z,629.00
2023-02-24T09:44:22.679Z,635.00
2023-02-24T09:45:22.765Z,636.00
2023-02-24T09:46:23.022Z,639.00
2023-02-24T09:47:22.817Z,642.00
2023-02-24T09:48:22.865Z,644.00
2023-02-24T09:49:22.904Z,647.00
2023-02-24T09:50:51.237Z,650.00
2023-02-24T09:51:24.266Z,652.00
2023-02-24T09:52:22.909Z,652.00
2023-02-24T09:53:22.922Z,652.00
2023-02-24T09:54:23.231Z,651.00
2023-02-24T09:55:22.888Z,652.00
2023-02-24T09:56:22.957Z,652.00
2023-02-24T09:57:22.883Z,652.00
2023-02-24T09:58:27.021Z,648.00
2023-02-24T09:59:24.682Z,645.00
2023-02-24T10:00:23.683Z,643.00
2023-02-24T10:01:23.232Z,645.00
2023-02-24T10:02:22.829Z,644.00
2023-02-24T10:03:22.786Z,645.00
2023-02-24T10:04:22.798Z,646.00
2023-02-24T10:05:22.769Z,645.00
2023-02-24T10:06:22.746Z,646.00
2023-02-24T10:07:22.770Z,644.00
2023-02-24T10:08:22.715Z,642.00
2023-02-24T10:09:22.705Z,645.00
2023-02-24T10:10:22.740Z,646.00
2023-02-24T10:11:22.910Z,648.00
2023-02-24T10:12:24.141Z,651.00
2023-02-24T10:13:22.660Z,651.00
2023-02-24T10:14:24.204Z,650.00
2023-02-24T10:15:22.623Z,648.00
2023-02-24T10:16:22.680Z,648.00
2023-02-24T10:17:22.794Z,648.00
2023-02-24T10:18:22.578Z,647.00
2023-02-24T10:19:22.550Z,661.00
2023-02-24T10:20:22.546Z,714.00
2023-02-24T10:21:22.784Z,734.00
2023-02-24T10:22:22.518Z,834.00
2023-02-24T10:23:22.491Z,861.00
2023-02-24T10:24:22.477Z,876.00
2023-02-24T10:25:22.464Z,939.00
2023-02-24T10:26:22.450Z,983.00
2023-02-24T10:27:22.451Z,1024.00
2023-02-24T10:28:22.412Z,1037.00
2023-02-24T10:29:22.415Z,1064.00
2023-02-24T10:30:22.381Z,1114.00
2023-02-24T10:31:22.885Z,1127.00
2023-02-24T10:32:22.536Z,1138.00
2023-02-24T10:33:22.314Z,1193.00
2023-02-24T10:34:24.041Z,1221.00
2023-02-24T10:35:22.284Z,1233.00
2023-02-24T10:36:22.269Z,1248.00
2023-02-24T10:37:28.304Z,1313.00
2023-02-24T10:38:23.213Z,1332.00
2023-02-24T10:39:22.190Z,1354.00
2023-02-24T10:40:22.163Z,1377.00
2023-02-24T10:41:22.570Z,1424.00
2023-02-24T10:42:22.155Z,1450.00
2023-02-24T10:43:22.127Z,1471.00
2023-02-24T10:44:22.076Z,1510.00
2023-02-24T10:45:23.323Z,1562.00
2023-02-24T10:46:26.397Z,1587.00
2023-02-24T10:47:23.010Z,1600.00
2023-02-24T10:48:29.535Z,1623.00
2023-02-24T10:49:22.949Z,1661.00
2023-02-24T10:50:21.917Z,1706.00
2023-02-24T10:51:23.231Z,1730.00
2023-02-24T10:52:22.681Z,1749.00
2023-02-24T10:53:21.855Z,1773.00
2023-02-24T10:54:21.814Z,1813.00
2023-02-24T10:55:22.607Z,1850.00
2023-02-24T10:56:22.046Z,1875.00
2023-02-24T10:57:21.721Z,1895.00
2023-02-24T10:58:21.698Z,1915.00
2023-02-24T10:59:21.691Z,1930.00
2023-02-24T11:00:21.626Z,1962.00
2023-02-24T11:01:21.979Z,2021.00
2023-02-24T11:02:21.616Z,2032.00
2023-02-24T11:03:32.493Z,2047.00
2023-02-24T11:04:22.509Z,2060.00
2023-02-24T11:05:21.466Z,2082.00
2023-02-24T11:06:21.479Z,2101.00
2023-02-24T11:07:21.403Z,2121.00
2023-02-24T11:08:21.390Z,2143.00
2023-02-24T11:09:21.436Z,2162.00
2023-02-24T11:10:21.325Z,2175.00
2023-02-24T11:11:21.574Z,2177.00
2023-02-24T11:12:21.267Z,2171.00
2023-02-24T11:48:21.624Z,2118.00
2023-02-24T11:49:21.600Z,2114.00
2023-02-24T11:50:21.592Z,2112.00
2023-02-24T11:51:21.813Z,2111.00
2023-02-24T11:52:21.572Z,2110.00
2023-02-24T11:53:21.558Z,2109.00
2023-02-24T11:54:21.563Z,2113.00
2023-02-24T11:55:21.540Z,2112.00
2023-02-24T11:56:21.684Z,2118.00
2023-02-24T11:57:21.517Z,2117.00
2023-02-24T11:58:21.499Z,2113.00
2023-02-24T11:59:21.492Z,2113.00
2023-02-24T12:00:21.496Z,2113.00
2023-02-24T12:01:22.144Z,2113.00
2023-02-24T12:02:21.486Z,2113.00
2023-02-24T12:03:21.770Z,2111.00
2023-02-24T12:04:22.193Z,2109.00
2023-02-24T12:05:21.502Z,2112.00
2023-02-24T12:06:21.553Z,2110.00
2023-02-24T12:07:21.955Z,2106.00
2023-02-24T12:08:21.476Z,2103.00
2023-02-24T12:09:22.375Z,2104.00
2023-02-24T12:10:22.027Z,2100.00
2023-02-24T12:11:22.080Z,2100.00
2023-02-24T12:12:21.474Z,2102.00
2023-02-24T12:13:21.473Z,2101.00
2023-02-24T12:14:21.548Z,2096.00
2023-02-24T12:15:21.481Z,2092.00
2023-02-24T12:16:21.503Z,2090.00
2023-02-24T12:17:21.460Z,2085.00
2023-02-24T12:18:21.456Z,2081.00
2023-02-24T12:19:21.455Z,2081.00
2023-02-24T12:20:21.449Z,2082.00
2023-02-24T12:21:22.086Z,2083.00
2023-02-24T12:22:21.440Z,2081.00
2023-02-24T12:23:21.433Z,2081.00
2023-02-24T12:24:21.446Z,2081.00
2023-02-24T12:25:21.433Z,2081.00
2023-02-24T12:26:21.427Z,2076.00
2023-02-24T12:27:21.418Z,2076.00
2023-02-24T13:16:21.269Z,2018.00
2023-02-24T13:17:21.218Z,2014.00
2023-02-24T13:18:21.221Z,2012.00
2023-02-24T13:19:21.231Z,2011.00
2023-02-24T13:20:21.240Z,2011.00
2023-02-24T13:21:21.532Z,2010.00
2023-02-24T13:22:21.333Z,2011.00
2023-02-24T13:23:21.243Z,2013.00
2023-02-24T13:24:21.250Z,2013.00
2023-02-24T13:25:21.234Z,2011.00
2023-02-24T13:26:21.239Z,2013.00
2023-02-24T13:27:21.249Z,2009.00
2023-02-24T13:28:21.310Z,2005.00
2023-02-24T13:29:21.263Z,2006.00
2023-02-24T13:30:21.245Z,2009.00
2023-02-24T13:31:21.481Z,2012.00
2023-02-24T13:32:21.313Z,2008.00
2023-02-24T13:33:21.355Z,2003.00
2023-02-24T13:34:21.239Z,1999.00
2023-02-24T13:35:21.244Z,1994.00
2023-02-24T13:36:21.235Z,1989.00
2023-02-24T13:37:21.265Z,1983.00
2023-02-24T13:38:21.252Z,1979.00
2023-02-24T13:39:21.233Z,1982.00
2023-02-24T13:40:21.255Z,1984.00
2023-02-24T13:41:21.597Z,1985.00
2023-02-24T13:42:21.268Z,1989.00
2023-02-24T13:43:21.288Z,1992.00
2023-02-24T13:44:21.304Z,1991.00
2023-02-24T13:45:21.300Z,1993.00
2023-02-24T13:46:21.438Z,1992.00
2023-02-24T13:47:21.341Z,1987.00
2023-02-24T13:48:21.337Z,1986.00
2023-02-24T13:49:21.344Z,1987.00
2023-02-24T13:50:21.417Z,1982.00
2023-02-24T13:51:21.537Z,1985.00
2023-02-24T13:52:21.374Z,1983.00
2023-02-24T13:53:21.368Z,1984.00
2023-02-24T13:54:21.367Z,1982.00
2023-02-24T13:55:21.388Z,1978.00
2023-02-24T13:56:21.394Z,1979.00
2023-02-24T13:57:21.394Z,1972.00
2023-02-24T13:58:21.403Z,1970.00
2023-02-24T13:59:21.431Z,1967.00
2023-02-24T14:00:21.417Z,1972.00
2023-02-24T14:01:21.816Z,1975.00
2023-02-24T14:02:21.505Z,1977.00
2023-02-24T14:03:21.454Z,1979.00
2023-02-24T14:04:21.454Z,1976.00
2023-02-24T14:05:21.471Z,1971.00
2023-02-24T14:06:21.875Z,1968.00
2023-02-24T14:07:21.508Z,1967.00
2023-02-24T14:08:21.515Z,1966.00
2023-02-24T14:09:21.528Z,1965.00
2023-02-24T14:10:21.521Z,1966.00
2023-02-24T14:11:21.863Z,1968.00
2023-02-24T14:12:21.574Z,1966.00
2023-02-24T14:13:21.575Z,1964.00
2023-02-24T14:14:21.595Z,1963.00
2023-02-24T14:15:21.617Z,1961.00
2023-02-24T14:16:22.089Z,1962.00
2023-02-24T14:17:21.631Z,1961.00
2023-02-24T14:18:21.685Z,1959.00
2023-02-24T14:19:21.651Z,1956.00
2023-02-24T14:20:21.674Z,1956.00
2023-02-24T14:21:21.699Z,1956.00
2023-02-24T14:22:21.708Z,1950.00
2023-02-24T14:23:21.712Z,1948.00
2023-02-24T14:24:21.711Z,1946.00
2023-02-24T14:25:21.722Z,1941.00
2023-02-24T14:26:22.130Z,1938.00
2023-02-24T14:27:21.752Z,1938.00
2023-02-24T14:28:21.814Z,1938.00
2023-02-24T14:29:21.757Z,1939.00
2023-02-24T14:30:21.768Z,1914.00
2023-02-24T14:31:21.924Z,1920.00
2023-02-24T14:32:21.933Z,1927.00
2023-02-24T14:33:21.815Z,1933.00
2023-02-24T14:34:21.824Z,1936.00
2023-02-24T14:35:21.837Z,1936.00
2023-02-24T14:36:22.233Z,1937.00
2023-02-24T14:37:21.868Z,1932.00
2023-02-24T14:38:21.894Z,1929.00
2023-02-24T14:39:21.921Z,1930.00
2023-02-24T14:40:21.926Z,1927.00
2023-02-24T14:41:21.939Z,1930.00
2023-02-24T14:42:22.020Z,1929.00
2023-02-24T14:43:21.972Z,1925.00
2023-02-24T14:44:21.989Z,1923.00
2023-02-24T14:45:22.013Z,1923.00
2023-02-24T14:46:22.406Z,1921.00
2023-02-24T14:47:22.045Z,1916.00
2023-02-24T14:48:22.070Z,1912.00
2023-02-24T14:49:22.098Z,1908.00
2023-02-24T14:50:22.120Z,1907.00
2023-02-24T14:51:22.144Z,1905.00
2023-02-24T14:52:22.179Z,1903.00
2023-02-24T14:53:22.202Z,1903.00
2023-02-24T14:54:22.230Z,1903.00
2023-02-24T14:55:22.254Z,1902.00
2023-02-24T14:56:22.648Z,1902.00
2023-02-24T14:57:22.283Z,1897.00
2023-02-24T14:58:22.307Z,1895.00
2023-02-24T14:59:22.321Z,1900.00
2023-02-24T15:00:22.342Z,1898.00
2023-02-24T15:01:22.402Z,1899.00
2023-02-24T15:02:22.384Z,1902.00
2023-02-24T15:03:22.442Z,1899.00
2023-02-24T15:04:22.432Z,1898.00
2023-02-24T15:05:22.449Z,1896.00
2023-02-24T15:06:22.832Z,1894.00
2023-02-24T15:07:22.547Z,1894.00
2023-02-24T15:08:22.504Z,1893.00
2023-02-24T16:27:25.970Z,1815.00
2023-02-24T16:28:26.087Z,1811.00
2023-02-24T16:29:26.079Z,1810.00
2023-02-24T16:30:26.225Z,1809.00
2023-02-24T16:31:27.083Z,1808.00
2023-02-24T16:32:26.441Z,1809.00
2023-02-24T16:33:26.437Z,1809.00
2023-02-24T16:34:26.381Z,1809.00
2023-02-24T16:35:26.447Z,1808.00
2023-02-24T16:36:26.958Z,1807.00
2023-02-24T16:37:26.586Z,1807.00
2023-02-24T16:38:26.933Z,1804.00
2023-02-24T16:39:26.710Z,1798.00
2023-02-24T16:40:26.847Z,1797.00
2023-02-24T16:41:26.848Z,1796.00
2023-02-24T16:42:26.911Z,1797.00
2023-02-24T16:55:27.511Z,1796.00
2023-02-24T16:56:27.521Z,1792.00
2023-02-24T16:57:27.540Z,1786.00
2023-02-24T16:58:27.590Z,1785.00
2023-02-24T16:59:27.630Z,1784.00
2023-02-24T17:00:27.675Z,1783.00
2023-02-24T17:01:27.763Z,1785.00
2023-02-24T17:03:27.745Z,1785.00
2023-02-24T17:04:27.855Z,1784.00
2023-02-24T17:05:27.817Z,1784.00
2023-02-24T17:06:28.401Z,1786.00
2023-02-24T17:07:27.897Z,1787.00
2023-02-24T17:08:28.005Z,1785.00
2023-02-24T17:09:27.998Z,1786.00
2023-02-24T17:10:27.985Z,1787.00
2023-02-24T17:11:28.016Z,1788.00
2023-02-24T17:12:28.012Z,1782.00
2023-02-24T17:13:28.135Z,1780.00
2023-02-24T17:14:28.114Z,1777.00
2023-02-24T17:15:28.154Z,1774.00
2023-02-24T17:16:28.235Z,1773.00
2023-02-24T17:17:28.205Z,1775.00
2023-02-24T17:18:28.224Z,1773.00
2023-02-24T18:05:28.259Z,1721.00
2023-02-24T18:06:28.305Z,1725.00
2023-02-24T18:07:28.266Z,1728.00
2023-02-24T18:08:28.277Z,1731.00
2023-02-24T18:09:28.261Z,1728.00
2023-02-24T18:10:28.254Z,1724.00
2023-02-24T18:11:28.262Z,1723.00
2023-02-24T18:12:28.252Z,1718.00
2023-02-24T18:13:28.247Z,1715.00
2023-02-24T18:14:28.255Z,1714.00
2023-02-24T18:15:28.255Z,1715.00
2023-02-24T18:16:28.315Z,1713.00
2023-02-24T18:17:28.260Z,1710.00
2023-02-24T18:18:28.264Z,1709.00
2023-02-24T18:19:28.253Z,1708.00
2023-02-24T18:20:28.263Z,1704.00
2023-02-24T18:21:28.259Z,1700.00
2023-02-24T18:22:28.271Z,1701.00
2023-02-24T18:23:28.264Z,1704.00
2023-02-24T21:10:31.103Z,1542.00
2023-02-24T21:15:31.219Z,1534.00
2023-02-24T21:16:31.249Z,1532.00
2023-02-24T21:17:31.270Z,1533.00
2023-02-24T21:19:31.328Z,1521.00
2023-02-24T21:20:31.349Z,1520.00
2023-02-24T21:21:31.385Z,1520.00
2023-02-24T21:22:31.401Z,1522.00
2023-02-24T21:23:31.443Z,1524.00
2023-02-24T21:24:31.448Z,1526.00
2023-02-24T21:25:31.465Z,1529.00
2023-02-24T21:26:31.559Z,1532.00
2023-02-24T21:27:31.552Z,1537.00
2023-02-24T21:28:31.560Z,1537.00
2023-02-24T21:29:31.588Z,1540.00
2023-02-24T21:30:31.760Z,1539.00
2023-02-24T21:31:31.784Z,1541.00
2023-02-24T21:32:31.718Z,1535.00
2023-02-24T21:33:31.693Z,1533.00
2023-02-24T21:34:31.732Z,1534.00
2023-02-24T21:35:31.753Z,1535.00
2023-02-24T21:36:31.793Z,1534.00
2023-02-24T21:37:33.239Z,1531.00
2023-02-24T21:38:31.800Z,1531.00
2023-02-24T21:39:31.820Z,1527.00
2023-02-24T21:40:31.803Z,1530.00
2023-02-24T21:41:31.859Z,1528.00
2023-02-24T21:42:31.808Z,1528.00
2023-02-24T21:43:31.806Z,1527.00
2023-02-24T21:44:31.807Z,1527.00
2023-02-24T21:45:31.804Z,1526.00
2023-02-24T21:46:31.875Z,1525.00
2023-02-24T21:47:31.804Z,1522.00
2023-02-24T21:48:31.808Z,1519.00
2023-02-24T21:49:31.798Z,1517.00
2023-02-24T21:50:31.797Z,1516.00
2023-02-24T21:51:31.791Z,1515.00
2023-02-24T21:52:31.793Z,1516.00
2023-02-24T21:53:31.789Z,1516.00
2023-02-24T21:54:31.784Z,1517.00
2023-02-24T21:55:31.789Z,1519.00
2023-02-24T21:56:31.785Z,1517.00
2023-02-24T21:57:31.809Z,1516.00
2023-02-24T21:58:31.864Z,1515.00
2023-02-24T21:59:31.779Z,1515.00
2023-02-24T22:00:31.844Z,1514.00
2023-02-24T22:01:32.461Z,1515.00
2023-02-24T22:02:31.776Z,1516.00
2023-02-24T22:03:31.839Z,1519.00
2023-02-24T22:04:31.774Z,1519.00
2023-02-24T22:05:31.763Z,1517.00
2023-02-24T22:06:32.121Z,1517.00
2023-02-24T22:07:31.760Z,1517.00
2023-02-24T22:08:31.789Z,1516.00
2023-02-24T22:09:31.775Z,1515.00
2023-02-24T22:10:31.774Z,1516.00
2023-02-24T22:11:31.774Z,1516.00
2023-02-24T22:12:31.820Z,1516.00
2023-02-24T22:13:31.757Z,1514.00
2023-02-24T22:14:31.774Z,1512.00
2023-02-24T22:15:31.753Z,1509.00
2023-02-24T22:16:31.818Z,1508.00
2023-02-24T22:17:31.749Z,1506.00
2023-02-24T22:18:31.736Z,1503.00
2023-02-24T22:19:31.739Z,1506.00
2023-02-24T22:20:31.727Z,1507.00
2023-02-24T22:21:31.729Z,1507.00
2023-02-24T22:22:31.717Z,1505.00
2023-02-24T22:23:32.410Z,1506.00
2023-02-24T22:24:31.724Z,1502.00
2023-02-24T22:25:31.714Z,1498.00
2023-02-24T22:26:31.708Z,1498.00
2023-02-24T22:27:31.702Z,1496.00
2023-02-24T22:28:31.705Z,1496.00
2023-02-24T22:29:31.692Z,1495.00
2023-02-24T22:30:31.708Z,1497.00
2023-02-24T22:31:31.779Z,1500.00
2023-02-24T22:32:31.758Z,1498.00
2023-02-24T22:33:31.689Z,1497.00
2023-02-24T22:34:31.699Z,1499.00
2023-02-24T22:35:31.845Z,1496.00
2023-02-24T22:36:31.694Z,1501.00
2023-02-24T22:37:31.737Z,1500.00
2023-02-24T22:38:31.686Z,1500.00
2023-02-24T22:39:31.691Z,1497.00
2023-02-24T22:40:31.794Z,1495.00
2023-02-24T22:41:31.690Z,1493.00
2023-02-24T22:42:31.680Z,1492.00
2023-02-24T22:43:31.771Z,1491.00
2023-02-24T22:44:31.684Z,1487.00
2023-02-24T22:45:31.772Z,1486.00
2023-02-24T22:46:31.715Z,1487.00
2023-02-24T22:47:31.687Z,1487.00
2023-02-24T22:48:31.668Z,1486.00
2023-02-24T22:49:31.670Z,1489.00
2023-02-24T22:50:32.420Z,1486.00
2023-02-24T22:51:31.752Z,1483.00
2023-02-24T22:52:31.775Z,1480.00
2023-02-24T22:53:31.840Z,1480.00
2023-02-24T22:54:31.861Z,1477.00
2023-02-24T22:55:31.891Z,1476.00
2023-02-24T22:56:31.940Z,1475.00
2023-02-24T22:57:31.964Z,1472.00
2023-02-24T22:58:31.998Z,1478.00
2023-02-24T22:59:32.035Z,1480.00
2023-02-24T23:00:32.166Z,1483.00
2023-02-24T23:01:32.119Z,1484.00
2023-02-24T23:02:32.160Z,1481.00
2023-02-24T23:03:32.210Z,1479.00
2023-02-24T23:04:32.234Z,1474.00
2023-02-24T23:05:32.270Z,1472.00
2023-02-24T23:06:32.929Z,1471.00
2023-02-24T23:07:32.331Z,1471.00
2023-02-24T23:08:32.389Z,1467.00
2023-02-24T23:09:32.444Z,1466.00
2023-02-24T23:10:32.453Z,1464.00
2023-02-24T23:11:32.516Z,1464.00
2023-02-24T23:12:32.528Z,1466.00
2023-02-24T23:13:32.565Z,1467.00
2023-02-24T23:14:32.614Z,1465.00
2023-02-24T23:15:33.423Z,1461.00
2023-02-24T23:16:32.782Z,1464.00
2023-02-24T23:17:32.721Z,1466.00
2023-02-24T23:18:32.768Z,1466.00
2023-02-24T23:19:32.804Z,1467.00
2023-02-24T23:20:32.857Z,1466.00
2023-02-24T23:21:32.889Z,1463.00
2023-02-24T23:22:32.926Z,1462.00
2023-02-24T23:23:32.984Z,1461.00
2023-02-24T23:24:33.007Z,1461.00
2023-02-24T23:25:33.048Z,1459.00
2023-02-24T23:26:33.098Z,1458.00
2023-02-24T23:27:33.143Z,1455.00
2023-02-24T23:28:33.194Z,1455.00
2023-02-24T23:29:33.231Z,1456.00
2023-02-24T23:30:33.319Z,1456.00
2023-02-24T23:31:33.389Z,1455.00
2023-02-24T23:32:33.478Z,1452.00
2023-02-24T23:33:33.419Z,1452.00
2023-02-24T23:34:33.446Z,1450.00
2023-02-24T23:35:33.527Z,1450.00
2023-02-24T23:36:33.516Z,1453.00
2023-02-24T23:37:33.563Z,1454.00
2023-02-24T23:38:33.607Z,1453.00
2023-02-24T23:39:33.653Z,1453.00
2023-02-24T23:40:44.374Z,1449.00
2023-02-24T23:41:34.694Z,1450.00
2023-02-24T23:42:33.685Z,1448.00
2023-02-24T23:43:33.693Z,1444.00
2023-02-24T23:44:33.689Z,1443.00
2023-02-24T23:45:34.448Z,1443.00
2023-02-24T23:46:33.712Z,1440.00
2023-02-24T23:47:33.700Z,1439.00
2023-02-24T23:48:33.698Z,1435.00
2023-02-24T23:49:47.518Z,1435.00
2023-02-24T23:50:34.681Z,1435.00
2023-02-24T23:51:47.505Z,1435.00
2023-02-24T23:52:34.681Z,1439.00
2023-02-24T23:53:33.689Z,1441.00
2023-02-24T23:54:33.679Z,1439.00
2023-02-24T23:55:33.685Z,1434.00
2023-02-24T23:56:33.684Z,1432.00
2023-02-24T23:57:33.756Z,1429.00
2023-02-24T23:58:33.758Z,1431.00
2023-02-24T23:59:33.763Z,1428.00
